createdAt,value
2018-08-28T00:01:30.789Z,2.77
2018-08-28T00:03:59.229Z,3.00
2018-08-28T00:06:27.727Z,3.00
2018-08-28T00:08:56.200Z,3.63
2018-08-28T00:11:24.688Z,3.27
2018-08-28T00:13:53.153Z,2.93
2018-08-28T00:16:21.591Z,2.83
2018-08-28T00:18:50.078Z,3.93
2018-08-28T00:21:18.555Z,2.87
2018-08-28T00:23:47.002Z,2.93
2018-08-28T00:26:15.464Z,2.63
2018-08-28T00:28:43.910Z,2.90
2018-08-28T00:31:12.341Z,3.90
2018-08-28T00:33:40.811Z,3.40
2018-08-28T00:36:09.251Z,3.60
2018-08-28T00:38:37.702Z,3.97
2018-08-28T00:41:06.202Z,4.13
2018-08-28T00:43:34.642Z,3.80
2018-08-28T00:46:03.103Z,4.53
2018-08-28T00:48:31.574Z,4.03
2018-08-28T00:50:59.998Z,4.73
2018-08-28T00:53:28.428Z,4.50
2018-08-28T00:55:56.856Z,4.37
2018-08-28T00:58:25.290Z,4.13
2018-08-28T01:00:53.730Z,4.30
2018-08-28T01:03:22.160Z,4.27
2018-08-28T01:05:50.629Z,4.20
2018-08-28T01:08:19.101Z,4.10
2018-08-28T01:10:47.541Z,4.07
2018-08-28T01:13:15.982Z,4.43
2018-08-28T01:15:44.442Z,3.90
2018-08-28T01:18:12.869Z,4.33
2018-08-28T01:20:41.329Z,4.13
2018-08-28T01:23:09.760Z,4.17
2018-08-28T01:25:38.197Z,3.90
2018-08-28T01:28:06.694Z,3.77
2018-08-28T01:30:35.829Z,4.20
2018-08-28T01:33:06.364Z,3.93
2018-08-28T01:35:35.243Z,4.33
2018-08-28T01:38:03.727Z,4.30
2018-08-28T01:40:32.235Z,4.23
2018-08-28T01:43:01.227Z,4.07
2018-08-28T01:45:29.772Z,3.80
2018-08-28T01:47:58.193Z,4.27
2018-08-28T01:50:26.767Z,4.03
2018-08-28T01:52:55.184Z,4.03
2018-08-28T01:55:23.604Z,3.97
2018-08-28T01:57:52.059Z,4.10
2018-08-28T02:00:20.595Z,4.33
2018-08-28T02:02:49.037Z,4.60
2018-08-28T02:05:17.509Z,4.10
2018-08-28T02:07:45.970Z,4.53
2018-08-28T02:10:14.436Z,3.80
2018-08-28T02:12:42.908Z,3.90
2018-08-28T02:15:11.341Z,3.93
2018-08-28T02:17:40.019Z,4.10
2018-08-28T02:20:08.541Z,4.20
2018-08-28T02:22:37.026Z,4.47
2018-08-28T02:25:06.403Z,4.30
2018-08-28T02:27:35.060Z,4.53
2018-08-28T02:30:03.521Z,3.93
2018-08-28T02:32:31.946Z,4.70
2018-08-28T02:35:00.520Z,4.10
2018-08-28T02:37:29.098Z,4.00
2018-08-28T02:39:57.617Z,4.37
2018-08-28T02:42:26.126Z,3.87
2018-08-28T02:44:54.588Z,4.57
2018-08-28T02:47:23.100Z,4.83
2018-08-28T02:49:51.649Z,4.37
2018-08-28T02:52:20.342Z,4.70
2018-08-28T02:54:48.828Z,4.40
2018-08-28T02:57:17.286Z,4.30
2018-08-28T02:59:45.774Z,4.17
2018-08-28T03:02:14.196Z,4.30
2018-08-28T03:04:42.676Z,4.47
2018-08-28T03:07:11.173Z,4.50
2018-08-28T03:09:39.795Z,4.03
2018-08-28T03:12:08.282Z,4.70
2018-08-28T03:14:36.707Z,4.57
2018-08-28T03:17:05.281Z,4.27
2018-08-28T03:19:33.731Z,4.30
2018-08-28T03:22:02.169Z,4.33
2018-08-28T03:24:30.643Z,4.73
2018-08-28T03:26:59.092Z,4.10
2018-08-28T03:29:27.547Z,3.90
2018-08-28T03:31:55.964Z,4.00
2018-08-28T03:34:24.409Z,3.90
2018-08-28T03:36:52.915Z,4.07
2018-08-28T03:39:21.450Z,4.40
2018-08-28T03:41:49.897Z,3.90
2018-08-28T03:44:18.336Z,3.63
2018-08-28T03:46:46.847Z,4.30
2018-08-28T03:49:15.294Z,5.13
2018-08-28T03:51:43.798Z,4.47
2018-08-28T03:54:12.248Z,4.13
2018-08-28T03:56:40.665Z,3.80
2018-08-28T03:59:09.108Z,4.00
2018-08-28T04:01:37.559Z,3.87
2018-08-28T04:04:06.268Z,4.20
2018-08-28T04:06:34.746Z,4.40
2018-08-28T04:09:03.247Z,4.47
2018-08-28T04:11:31.680Z,3.93
2018-08-28T04:14:00.158Z,4.80
2018-08-28T04:16:28.620Z,4.90
2018-08-28T04:18:57.104Z,4.60
2018-08-28T04:21:25.579Z,4.80
2018-08-28T04:23:54.025Z,4.83
2018-08-28T04:26:22.521Z,4.70
2018-08-28T04:28:50.955Z,5.00
2018-08-28T04:31:19.423Z,5.20
2018-08-28T04:33:47.867Z,5.40
2018-08-28T04:36:16.331Z,5.27
2018-08-28T04:38:44.776Z,4.73
2018-08-28T04:41:13.244Z,5.00
2018-08-28T04:43:41.682Z,5.40
2018-08-28T04:46:10.164Z,5.00
2018-08-28T04:48:38.640Z,5.10
2018-08-28T04:51:07.119Z,5.07
2018-08-28T04:53:35.575Z,5.67
2018-08-28T04:56:04.047Z,4.67
2018-08-28T04:58:32.500Z,4.80
2018-08-28T05:01:00.982Z,5.57
2018-08-28T05:03:29.468Z,5.07
2018-08-28T05:05:57.904Z,5.00
2018-08-28T05:08:26.496Z,5.00
2018-08-28T05:10:55.000Z,5.20
2018-08-28T05:13:23.478Z,5.17
2018-08-28T05:15:51.970Z,5.10
2018-08-28T05:18:20.386Z,4.83
2018-08-28T05:20:48.904Z,4.73
2018-08-28T05:23:17.364Z,4.73
2018-08-28T05:25:46.024Z,4.73
2018-08-28T05:28:14.536Z,4.90
2018-08-28T05:30:43.102Z,5.00
2018-08-28T05:33:11.624Z,5.13
2018-08-28T05:35:40.186Z,5.40
2018-08-28T05:38:09.019Z,5.50
2018-08-28T05:40:37.955Z,5.53
2018-08-28T05:43:06.420Z,4.80
2018-08-28T05:45:34.890Z,5.17
2018-08-28T05:48:03.313Z,5.23
2018-08-28T05:50:31.820Z,5.50
2018-08-28T05:53:00.291Z,5.33
2018-08-28T05:55:28.754Z,5.30
2018-08-28T05:57:57.227Z,5.97
2018-08-28T06:00:25.699Z,5.27
2018-08-28T06:02:54.164Z,5.70
2018-08-28T06:05:22.649Z,6.13
2018-08-28T06:07:51.233Z,5.67
2018-08-28T06:10:19.697Z,5.37
2018-08-28T06:12:48.175Z,5.80
2018-08-28T06:15:16.655Z,4.60
2018-08-28T06:17:45.285Z,5.07
2018-08-28T06:20:13.952Z,4.53
2018-08-28T06:22:46.638Z,5.37
2018-08-28T06:25:15.251Z,5.87
2018-08-28T06:27:43.745Z,6.07
2018-08-28T06:30:12.327Z,5.47
2018-08-28T06:32:40.813Z,5.80
2018-08-28T06:35:09.440Z,5.33
2018-08-28T06:37:37.993Z,5.30
2018-08-28T06:40:06.544Z,5.13
2018-08-28T06:42:35.049Z,6.03
2018-08-28T06:45:03.621Z,5.40
2018-08-28T06:47:32.121Z,4.83
2018-08-28T06:50:00.662Z,5.47
2018-08-28T06:52:29.185Z,5.33
2018-08-28T06:54:57.805Z,5.37
2018-08-28T06:57:26.339Z,5.03
2018-08-28T06:59:54.863Z,5.03
2018-08-28T07:02:23.439Z,4.90
2018-08-28T07:04:51.903Z,4.83
2018-08-28T07:07:20.404Z,4.70
2018-08-28T07:09:48.912Z,4.33
2018-08-28T07:12:17.438Z,4.83
2018-08-28T07:14:45.948Z,4.60
2018-08-28T07:17:14.538Z,5.50
2018-08-28T07:19:43.084Z,4.60
2018-08-28T07:22:11.614Z,4.70
2018-08-28T07:24:40.132Z,4.90
2018-08-28T07:27:15.211Z,4.07
2018-08-28T07:29:44.547Z,4.63
2018-08-28T07:32:20.449Z,4.27
2018-08-28T07:34:48.995Z,3.97
2018-08-28T07:37:17.558Z,4.70
2018-08-28T07:39:46.058Z,4.30
2018-08-28T07:42:14.590Z,5.03
2018-08-28T07:44:43.078Z,5.23
2018-08-28T07:47:11.557Z,5.13
2018-08-28T07:49:40.012Z,4.43
2018-08-28T07:52:08.575Z,4.80
2018-08-28T07:54:37.132Z,5.23
2018-08-28T07:57:05.634Z,5.20
2018-08-28T07:59:34.218Z,5.47
2018-08-28T08:02:02.750Z,4.87
2018-08-28T08:04:31.229Z,5.80
2018-08-28T08:06:59.729Z,6.13
2018-08-28T08:09:28.174Z,5.10
2018-08-28T08:11:56.691Z,5.37
2018-08-28T08:14:25.185Z,5.67
2018-08-28T08:16:53.689Z,5.53
2018-08-28T08:19:22.167Z,5.33
2018-08-28T08:21:50.663Z,5.43
2018-08-28T08:24:19.118Z,6.20
2018-08-28T08:26:47.587Z,5.73
2018-08-28T08:29:16.125Z,6.20
2018-08-28T08:31:44.635Z,5.63
2018-08-28T08:34:13.179Z,5.50
2018-08-28T08:36:41.648Z,4.83
2018-08-28T08:39:10.939Z,4.60
2018-08-28T08:41:40.018Z,4.57
2018-08-28T08:44:08.547Z,4.57
2018-08-28T08:46:37.054Z,4.50
2018-08-28T08:49:05.660Z,4.93
2018-08-28T08:51:34.134Z,4.20
2018-08-28T08:54:02.647Z,4.20
2018-08-28T08:56:31.120Z,4.80
2018-08-28T08:58:59.604Z,5.10
2018-08-28T09:01:28.039Z,5.13
2018-08-28T09:03:56.527Z,5.77
2018-08-28T09:06:24.988Z,8.60
2018-08-28T09:08:53.472Z,6.67
2018-08-28T09:11:22.054Z,4.47
2018-08-28T09:13:50.528Z,4.67
2018-08-28T09:16:19.068Z,5.70
2018-08-28T09:18:47.545Z,4.43
2018-08-28T09:21:16.046Z,4.60
2018-08-28T09:23:44.485Z,4.57
2018-08-28T09:26:13.198Z,5.17
2018-08-28T09:28:41.613Z,5.20
2018-08-28T09:31:10.111Z,4.87
2018-08-28T09:33:38.628Z,4.43
2018-08-28T09:36:07.121Z,4.13
2018-08-28T09:38:36.746Z,4.07
2018-08-28T09:41:05.869Z,4.27
2018-08-28T09:43:34.318Z,4.43
2018-08-28T09:46:02.785Z,5.27
2018-08-28T09:48:31.912Z,4.03
2018-08-28T09:51:01.155Z,3.93
2018-08-28T09:53:29.629Z,3.53
2018-08-28T09:55:58.733Z,3.13
2018-08-28T09:58:27.187Z,3.37
2018-08-28T10:01:01.060Z,3.13
2018-08-28T10:03:29.516Z,4.50
2018-08-28T10:05:58.019Z,3.30
2018-08-28T10:08:26.461Z,3.00
2018-08-28T10:10:54.945Z,4.00
2018-08-28T10:13:23.390Z,3.60
2018-08-28T10:15:51.873Z,2.87
2018-08-28T10:18:20.309Z,3.37
2018-08-28T10:20:48.763Z,2.97
2018-08-28T10:23:17.229Z,2.90
2018-08-28T10:25:45.696Z,2.67
2018-08-28T10:28:14.158Z,3.03
2018-08-28T10:30:42.610Z,2.97
2018-08-28T10:33:11.021Z,3.63
2018-08-28T10:35:39.719Z,3.67
2018-08-28T10:38:08.189Z,3.17
2018-08-28T10:40:36.605Z,3.23
2018-08-28T10:43:05.117Z,2.87
2018-08-28T10:45:33.551Z,3.80
2018-08-28T10:48:02.021Z,2.80
2018-08-28T10:50:30.592Z,2.40
2018-08-28T10:52:59.148Z,2.43
2018-08-28T10:55:27.520Z,2.73
2018-08-28T10:57:55.962Z,2.07
2018-08-28T11:00:24.426Z,2.30
2018-08-28T11:02:52.846Z,2.77
2018-08-28T11:05:21.368Z,2.50
2018-08-28T11:07:49.888Z,2.63
2018-08-28T11:10:18.312Z,2.73
2018-08-28T11:12:46.736Z,2.80
2018-08-28T11:15:15.251Z,2.30
2018-08-28T11:17:43.705Z,2.40
2018-08-28T11:20:12.193Z,2.40
2018-08-28T11:22:40.639Z,2.00
2018-08-28T11:25:09.504Z,1.90
2018-08-28T11:27:37.974Z,1.80
2018-08-28T11:30:06.494Z,1.63
2018-08-28T11:32:34.918Z,1.90
2018-08-28T11:35:03.393Z,2.40
2018-08-28T11:37:31.840Z,1.77
2018-08-28T11:40:00.262Z,1.73
2018-08-28T11:42:28.763Z,2.17
2018-08-28T11:44:57.196Z,1.77
2018-08-28T11:47:25.697Z,2.10
2018-08-28T11:49:54.149Z,1.87
2018-08-28T11:52:22.675Z,1.90
2018-08-28T11:54:51.121Z,1.93
2018-08-28T11:57:19.671Z,2.10
2018-08-28T11:59:48.153Z,2.00
2018-08-28T12:02:16.664Z,1.83
2018-08-28T12:04:45.191Z,2.10
2018-08-28T12:07:13.739Z,1.80
2018-08-28T12:09:42.126Z,2.20
2018-08-28T12:12:10.642Z,2.10
2018-08-28T12:14:39.123Z,2.50
2018-08-28T12:17:07.687Z,2.53
2018-08-28T12:19:36.204Z,2.17
2018-08-28T12:22:04.789Z,1.63
2018-08-28T12:24:33.289Z,1.87
2018-08-28T12:27:01.770Z,1.50
2018-08-28T12:29:30.268Z,2.00
2018-08-28T12:31:58.773Z,2.03
2018-08-28T12:34:27.223Z,2.13
2018-08-28T12:36:55.766Z,2.10
2018-08-28T12:39:24.153Z,2.03
2018-08-28T12:41:52.663Z,2.30
2018-08-28T12:44:21.106Z,1.97
2018-08-28T12:46:49.545Z,1.83
2018-08-28T12:49:17.968Z,2.10
2018-08-28T12:51:46.452Z,1.80
2018-08-28T12:54:14.873Z,1.70
2018-08-28T12:56:43.310Z,2.30
2018-08-28T12:59:12.179Z,2.20
2018-08-28T13:01:40.640Z,1.90
2018-08-28T13:04:09.098Z,2.23
2018-08-28T13:06:37.635Z,2.03
2018-08-28T13:09:07.422Z,2.00
2018-08-28T13:11:35.891Z,2.10
2018-08-28T13:14:11.180Z,1.93
2018-08-28T13:16:39.680Z,2.13
2018-08-28T13:19:08.338Z,2.10
2018-08-28T13:21:36.805Z,2.07
2018-08-28T13:24:05.313Z,2.57
2018-08-28T13:26:33.737Z,2.33
2018-08-28T13:29:02.225Z,2.57
2018-08-28T13:31:30.723Z,2.20
2018-08-28T13:33:59.179Z,2.50
2018-08-28T13:36:27.643Z,2.10
2018-08-28T13:38:56.099Z,1.90
2018-08-28T13:41:24.569Z,2.20
2018-08-28T13:43:53.100Z,2.20
2018-08-28T13:46:21.559Z,2.30
2018-08-28T13:48:50.083Z,2.00
2018-08-28T13:51:18.565Z,2.13
2018-08-28T13:53:47.099Z,2.20
2018-08-28T13:56:15.510Z,3.03
2018-08-28T13:58:43.988Z,2.60
2018-08-28T14:01:12.437Z,2.23
2018-08-28T14:03:40.898Z,2.80
2018-08-28T14:06:09.333Z,2.03
2018-08-28T14:08:37.778Z,2.43
2018-08-28T14:11:06.235Z,2.20
2018-08-28T14:13:34.705Z,2.73
2018-08-28T14:16:03.219Z,1.93
2018-08-28T14:18:31.678Z,1.90
2018-08-28T14:21:00.153Z,2.40
2018-08-28T14:23:28.676Z,2.67
2018-08-28T14:25:57.208Z,2.25
2018-08-28T14:28:25.656Z,2.45
2018-08-28T14:30:54.110Z,2.40
2018-08-28T14:33:22.573Z,2.10
2018-08-28T14:35:51.057Z,2.15
2018-08-28T14:38:19.557Z,2.47
2018-08-28T14:40:48.004Z,2.60
2018-08-28T14:43:16.444Z,2.37
2018-08-28T14:45:44.894Z,2.27
2018-08-28T14:48:13.367Z,2.20
2018-08-28T14:50:41.840Z,1.92
2018-08-28T14:53:10.333Z,2.27
2018-08-28T14:55:38.780Z,2.10
2018-08-28T14:58:07.289Z,2.23
2018-08-28T15:00:35.842Z,2.60
2018-08-28T15:03:04.372Z,2.40
2018-08-28T15:05:32.762Z,2.53
2018-08-28T15:08:01.168Z,2.43
2018-08-28T15:10:29.656Z,2.17
2018-08-28T15:12:58.112Z,2.30
2018-08-28T15:15:26.617Z,2.60
2018-08-28T15:17:55.176Z,2.23
2018-08-28T15:20:23.632Z,2.30
2018-08-28T15:22:52.063Z,2.33
2018-08-28T15:25:20.554Z,2.43
2018-08-28T15:27:49.072Z,2.13
2018-08-28T15:30:17.543Z,2.73
2018-08-28T15:32:46.098Z,2.40
2018-08-28T15:35:14.606Z,2.20
2018-08-28T15:37:43.127Z,2.23
2018-08-28T15:40:11.703Z,2.30
2018-08-28T15:42:40.177Z,2.30
2018-08-28T15:45:08.751Z,2.93
2018-08-28T15:47:37.292Z,2.80
2018-08-28T15:50:05.860Z,2.47
2018-08-28T15:52:34.339Z,2.40
2018-08-28T15:55:02.867Z,2.73
2018-08-28T15:57:31.370Z,2.73
2018-08-28T15:59:59.962Z,2.83
2018-08-28T16:02:28.538Z,2.53
2018-08-28T16:04:57.174Z,2.60
2018-08-28T16:07:25.636Z,2.80
2018-08-28T16:09:54.162Z,3.50
2018-08-28T16:12:22.646Z,2.40
2018-08-28T16:14:51.143Z,2.70
2018-08-28T16:17:19.665Z,2.50
2018-08-28T16:19:48.167Z,2.70
2018-08-28T16:22:21.184Z,2.50
2018-08-28T16:24:49.698Z,2.80
2018-08-28T16:27:18.168Z,2.73
2018-08-28T16:29:46.689Z,2.67
2018-08-28T16:32:15.158Z,2.60
2018-08-28T16:34:43.657Z,3.00
2018-08-28T16:37:12.145Z,2.63
2018-08-28T16:39:40.713Z,3.00
2018-08-28T16:42:09.246Z,2.87
2018-08-28T16:44:37.736Z,2.93
2018-08-28T16:47:06.243Z,3.40
2018-08-28T16:49:34.769Z,3.00
2018-08-28T16:52:03.278Z,3.37
2018-08-28T16:54:31.772Z,3.10
2018-08-28T16:57:00.253Z,3.03
2018-08-28T16:59:28.715Z,2.60
2018-08-28T17:01:57.256Z,2.97
2018-08-28T17:04:26.865Z,3.20
2018-08-28T17:06:55.348Z,2.70
2018-08-28T17:09:24.018Z,3.57
2018-08-28T17:11:53.883Z,3.10
2018-08-28T17:14:22.467Z,3.57
2018-08-28T17:16:50.979Z,3.30
2018-08-28T17:19:19.486Z,3.47
2018-08-28T17:21:47.939Z,3.13
2018-08-28T17:24:16.529Z,3.00
2018-08-28T17:26:45.015Z,3.63
2018-08-28T17:29:13.517Z,3.27
2018-08-28T17:31:42.161Z,3.77
2018-08-28T17:34:10.726Z,3.20
2018-08-28T17:36:39.229Z,3.63
2018-08-28T17:39:08.135Z,3.40
2018-08-28T17:41:36.727Z,3.50
2018-08-28T17:44:05.287Z,3.20
2018-08-28T17:46:33.802Z,3.50
2018-08-28T17:49:02.367Z,3.93
2018-08-28T17:51:31.990Z,3.63
2018-08-28T17:54:00.486Z,4.00
2018-08-28T17:56:29.068Z,4.23
2018-08-28T17:58:57.609Z,3.67
2018-08-28T18:01:26.246Z,3.70
2018-08-28T18:03:54.732Z,3.53
2018-08-28T18:06:23.167Z,3.67
2018-08-28T18:08:51.746Z,3.20
2018-08-28T18:11:20.195Z,4.50
2018-08-28T18:13:49.438Z,3.90
2018-08-28T18:16:17.964Z,4.00
2018-08-28T18:18:46.523Z,3.60
2018-08-28T18:21:14.981Z,3.43
2018-08-28T18:23:43.472Z,4.00
2018-08-28T18:26:11.923Z,4.60
2018-08-28T18:28:40.423Z,3.43
2018-08-28T18:31:08.895Z,4.10
2018-08-28T18:33:37.394Z,3.97
2018-08-28T18:36:06.069Z,4.00
2018-08-28T18:38:34.517Z,4.30
2018-08-28T18:41:03.173Z,4.40
2018-08-28T18:43:31.532Z,4.70
2018-08-28T18:46:00.039Z,4.97
2018-08-28T18:48:28.472Z,4.90
2018-08-28T18:50:56.974Z,5.23
2018-08-28T18:53:25.451Z,4.30
2018-08-28T18:55:53.936Z,4.20
2018-08-28T18:58:25.690Z,5.33
2018-08-28T19:00:54.156Z,5.47
2018-08-28T19:03:22.614Z,6.00
2018-08-28T19:05:51.031Z,7.13
2018-08-28T19:08:19.511Z,7.03
2018-08-28T19:10:47.977Z,7.33
2018-08-28T19:13:16.584Z,7.43
2018-08-28T19:15:45.316Z,6.90
2018-08-28T19:18:20.725Z,6.50
2018-08-28T19:20:49.266Z,7.37
2018-08-28T19:23:17.788Z,7.13
2018-08-28T19:25:46.263Z,7.97
2018-08-28T19:28:14.775Z,7.43
2018-08-28T19:30:43.304Z,7.60
2018-08-28T19:33:11.784Z,7.53
2018-08-28T19:35:40.249Z,7.57
2018-08-28T19:38:09.299Z,7.40
2018-08-28T19:40:37.978Z,7.63
2018-08-28T19:43:06.434Z,7.77
2018-08-28T19:45:34.884Z,7.60
2018-08-28T19:48:03.352Z,8.23
2018-08-28T19:50:31.807Z,8.27
2018-08-28T19:53:00.353Z,8.00
2018-08-28T19:55:28.810Z,8.57
2018-08-28T19:57:57.318Z,9.00
2018-08-28T20:00:25.913Z,9.13
2018-08-28T20:02:54.423Z,10.03
2018-08-28T20:05:22.892Z,10.70
2018-08-28T20:07:51.402Z,12.40
2018-08-28T20:10:19.966Z,13.03
2018-08-28T20:12:48.402Z,13.77
2018-08-28T20:15:16.854Z,13.37
2018-08-28T20:17:45.378Z,13.03
2018-08-28T20:20:13.834Z,13.47
2018-08-28T20:22:42.283Z,13.03
2018-08-28T20:25:10.800Z,13.33
2018-08-28T20:27:39.270Z,14.67
2018-08-28T20:30:08.066Z,14.47
2018-08-28T20:32:36.523Z,15.67
2018-08-28T20:35:06.454Z,15.40
2018-08-28T20:37:34.908Z,16.37
2018-08-28T20:40:03.396Z,16.50
2018-08-28T20:42:31.894Z,16.40
2018-08-28T20:45:00.374Z,18.40
2018-08-28T20:47:28.805Z,17.77
2018-08-28T20:49:57.243Z,18.03
2018-08-28T20:52:25.707Z,18.03
2018-08-28T20:54:54.197Z,16.53
2018-08-28T20:57:22.717Z,17.80
2018-08-28T20:59:51.208Z,18.33
2018-08-28T21:02:19.732Z,17.67
2018-08-28T21:04:48.179Z,18.83
2018-08-28T21:07:16.597Z,19.37
2018-08-28T21:09:45.136Z,21.87
2018-08-28T21:12:13.631Z,22.97
2018-08-28T21:14:42.074Z,24.73
2018-08-28T21:17:10.524Z,26.77
2018-08-28T21:19:39.059Z,29.00
2018-08-28T21:22:07.509Z,29.13
2018-08-28T21:24:35.996Z,31.00
2018-08-28T21:27:04.464Z,29.93
2018-08-28T21:29:33.014Z,31.30
2018-08-28T21:32:01.414Z,31.73
2018-08-28T21:34:29.878Z,32.03
2018-08-28T21:36:58.326Z,32.03
2018-08-28T21:39:26.783Z,31.93
2018-08-28T21:41:55.244Z,31.67
2018-08-28T21:44:23.713Z,32.63
2018-08-28T21:46:52.218Z,32.17
2018-08-28T21:49:20.653Z,32.77
2018-08-28T21:51:49.130Z,31.27
2018-08-28T21:54:17.634Z,32.67
2018-08-28T21:56:46.053Z,32.40
2018-08-28T21:59:14.476Z,32.63
2018-08-28T22:01:42.911Z,32.13
2018-08-28T22:04:11.365Z,32.37
2018-08-28T22:06:45.162Z,31.57
2018-08-28T22:09:13.601Z,33.63
2018-08-28T22:11:42.036Z,34.27
2018-08-28T22:14:10.562Z,35.37
2018-08-28T22:16:39.045Z,33.43
2018-08-28T22:19:07.508Z,32.43
2018-08-28T22:21:36.045Z,33.30
2018-08-28T22:24:04.511Z,33.03
2018-08-28T22:26:32.981Z,33.20
2018-08-28T22:29:01.431Z,31.80
2018-08-28T22:31:29.899Z,31.07
2018-08-28T22:33:58.421Z,31.33
2018-08-28T22:36:26.967Z,30.57
2018-08-28T22:38:55.405Z,31.03
2018-08-28T22:41:23.861Z,31.37
2018-08-28T22:43:52.327Z,33.47
2018-08-28T22:46:20.785Z,31.77
2018-08-28T22:48:49.257Z,32.67
2018-08-28T22:51:17.727Z,33.40
2018-08-28T22:53:46.188Z,34.33
2018-08-28T22:56:14.617Z,33.93
2018-08-28T22:58:43.108Z,33.33
2018-08-28T23:01:11.559Z,33.23
2018-08-28T23:03:40.005Z,31.77
2018-08-28T23:06:08.571Z,34.13
2018-08-28T23:08:37.277Z,33.23
2018-08-28T23:11:05.794Z,32.60
2018-08-28T23:13:34.288Z,32.57
2018-08-28T23:16:03.198Z,33.80
2018-08-28T23:18:31.702Z,32.43
2018-08-28T23:21:00.172Z,33.03
2018-08-28T23:23:28.614Z,32.50
2018-08-28T23:25:57.112Z,32.77
2018-08-28T23:28:25.648Z,32.53
2018-08-28T23:30:54.140Z,31.97
2018-08-28T23:33:22.568Z,30.97
2018-08-28T23:35:51.133Z,32.13
2018-08-28T23:38:19.578Z,30.63
2018-08-28T23:40:48.025Z,32.47
2018-08-28T23:43:16.493Z,31.87
2018-08-28T23:45:44.949Z,30.07
2018-08-28T23:48:13.383Z,30.10
2018-08-28T23:50:41.881Z,32.30
2018-08-28T23:53:10.355Z,34.23
2018-08-28T23:55:38.812Z,35.00
2018-08-28T23:58:07.277Z,36.47
